createdAt,value
2022-10-05T00:01:34.574Z,8.02
2022-10-05T00:06:36.188Z,6.60
2022-10-05T00:11:37.727Z,7.45
2022-10-05T00:16:39.346Z,7.75
2022-10-05T00:21:40.962Z,8.52
2022-10-05T00:26:42.545Z,7.45
2022-10-05T00:31:44.147Z,9.55
2022-10-05T00:36:46.032Z,7.70
2022-10-05T00:41:59.729Z,8.73
2022-10-05T00:47:19.733Z,8.82
2022-10-05T00:52:42.784Z,8.38
2022-10-05T00:57:50.276Z,9.02
2022-10-05T01:02:57.539Z,9.68
2022-10-05T01:08:11.035Z,9.95
2022-10-05T01:13:41.003Z,9.82
2022-10-05T01:18:45.461Z,10.52
2022-10-05T01:24:08.746Z,9.70
2022-10-05T01:29:13.127Z,10.00
2022-10-05T01:34:50.825Z,10.50
2022-10-05T01:45:06.006Z,10.35
2022-10-05T01:50:23.548Z,10.57
2022-10-05T01:55:40.902Z,12.30
2022-10-05T02:00:55.309Z,10.73
2022-10-05T02:06:08.771Z,11.60
2022-10-05T02:11:14.454Z,11.18
2022-10-05T02:16:28.567Z,10.85
2022-10-05T02:21:34.047Z,11.32
2022-10-05T02:26:38.869Z,12.20
2022-10-05T02:32:02.782Z,12.48
2022-10-05T02:37:43.445Z,11.40
2022-10-05T02:42:57.226Z,11.43
2022-10-05T02:48:48.380Z,11.95
2022-10-05T02:54:08.022Z,12.73
2022-10-05T02:59:29.636Z,11.93
2022-10-05T03:04:55.547Z,11.85
2022-10-05T03:10:03.538Z,11.95
2022-10-05T03:15:37.360Z,13.20
2022-10-05T03:20:44.848Z,12.43
2022-10-05T03:26:07.393Z,14.20
2022-10-05T03:31:18.393Z,13.38
2022-10-05T03:36:28.024Z,13.68
2022-10-05T03:41:48.584Z,13.80
2022-10-05T03:46:59.297Z,11.68
2022-10-05T03:52:15.625Z,13.80
2022-10-05T03:57:24.098Z,12.50
2022-10-05T04:02:31.113Z,12.80
2022-10-05T04:08:10.739Z,13.82
2022-10-05T04:13:32.025Z,13.93
2022-10-05T04:18:42.096Z,14.68
2022-10-05T04:23:55.924Z,13.65
2022-10-05T04:29:04.480Z,14.75
2022-10-05T04:34:27.457Z,15.75
2022-10-05T04:39:59.557Z,12.90
2022-10-05T04:45:24.096Z,14.57
2022-10-05T04:50:52.065Z,16.38
2022-10-05T04:56:02.905Z,15.77
2022-10-05T05:01:20.131Z,16.05
2022-10-05T05:06:37.386Z,15.50
2022-10-05T05:12:08.042Z,15.23
2022-10-05T05:17:32.652Z,15.38
2022-10-05T05:22:55.681Z,17.13
2022-10-05T05:28:10.896Z,14.10
2022-10-05T05:33:20.913Z,13.65
2022-10-05T05:38:32.150Z,13.35
2022-10-05T05:43:50.292Z,13.52
2022-10-05T05:48:56.246Z,14.20
2022-10-05T05:54:11.796Z,13.13
2022-10-05T05:59:28.764Z,14.10
2022-10-05T06:04:41.281Z,14.23
2022-10-05T06:09:50.188Z,12.70
2022-10-05T06:15:23.558Z,12.95
2022-10-05T06:20:30.865Z,13.77
2022-10-05T06:25:38.634Z,13.18
2022-10-05T06:31:08.845Z,13.25
2022-10-05T06:36:52.792Z,13.38
2022-10-05T06:42:19.014Z,11.38
2022-10-05T06:47:54.217Z,10.63
2022-10-05T06:53:36.435Z,9.82
2022-10-05T06:59:17.016Z,8.68
2022-10-05T07:04:24.694Z,9.32
2022-10-05T07:09:45.080Z,9.38
2022-10-05T07:14:53.310Z,8.57
2022-10-05T07:20:24.790Z,8.15
2022-10-05T07:25:39.447Z,9.05
2022-10-05T07:31:04.606Z,8.02
2022-10-05T07:36:20.712Z,8.80
2022-10-05T07:41:45.501Z,8.27
2022-10-05T07:47:04.493Z,7.35
2022-10-05T07:52:38.724Z,8.63
2022-10-05T07:57:57.713Z,7.95
2022-10-05T08:03:07.008Z,7.05
2022-10-05T08:08:13.254Z,7.40
2022-10-05T08:13:23.512Z,6.80
2022-10-05T08:19:02.466Z,5.30
2022-10-05T08:24:18.746Z,5.75
2022-10-05T08:29:20.173Z,6.25
2022-10-05T08:34:40.839Z,5.78
2022-10-05T08:39:54.652Z,6.20
2022-10-05T08:44:59.064Z,5.88
2022-10-05T08:50:30.935Z,5.78
2022-10-05T08:55:45.492Z,4.38
2022-10-05T09:01:22.154Z,4.15
2022-10-05T09:06:51.815Z,4.70
2022-10-05T09:12:00.564Z,3.58
2022-10-05T09:17:10.829Z,4.28
2022-10-05T09:22:22.159Z,3.88
2022-10-05T09:27:36.702Z,3.03
2022-10-05T09:32:59.180Z,2.58
2022-10-05T09:38:15.184Z,2.38
2022-10-05T09:43:22.611Z,1.95
2022-10-05T09:48:26.741Z,2.65
2022-10-05T09:53:46.544Z,2.60
2022-10-05T09:59:06.321Z,2.20
2022-10-05T10:04:13.856Z,2.53
2022-10-05T10:09:50.763Z,2.00
2022-10-05T10:15:23.671Z,2.40
2022-10-05T10:20:50.119Z,1.92
2022-10-05T10:26:30.107Z,1.80
2022-10-05T10:31:47.848Z,1.73
2022-10-05T10:37:04.760Z,2.05
2022-10-05T10:42:15.384Z,2.30
2022-10-05T10:48:03.425Z,1.75
2022-10-05T10:53:04.884Z,1.50
2022-10-05T10:58:06.297Z,1.65
2022-10-05T11:03:45.908Z,1.30
2022-10-05T11:09:06.358Z,0.98
2022-10-05T11:14:16.792Z,1.00
2022-10-05T11:20:03.063Z,1.00
2022-10-05T11:25:17.837Z,1.17
2022-10-05T11:30:40.986Z,1.10
2022-10-05T11:35:57.734Z,1.42
2022-10-05T11:41:20.391Z,1.58
2022-10-05T11:46:48.755Z,0.98
2022-10-05T11:51:52.914Z,1.10
2022-10-05T11:57:07.771Z,1.20
2022-10-05T12:02:24.277Z,1.00
2022-10-05T12:07:53.867Z,1.10
2022-10-05T12:13:10.194Z,1.10
2022-10-05T12:18:20.924Z,1.10
2022-10-05T12:23:30.780Z,1.25
2022-10-05T12:28:41.950Z,1.13
2022-10-05T12:33:56.980Z,1.35
2022-10-05T12:39:29.316Z,1.10
2022-10-05T12:44:57.241Z,1.10
2022-10-05T12:50:19.866Z,1.02
2022-10-05T12:55:34.062Z,0.82
2022-10-05T13:00:45.806Z,1.13
2022-10-05T13:06:13.710Z,1.42
2022-10-05T13:11:26.313Z,1.27
2022-10-05T13:17:02.767Z,1.30
2022-10-05T13:22:22.088Z,1.33
2022-10-05T13:27:27.888Z,1.30
2022-10-05T13:32:38.811Z,0.98
2022-10-05T13:37:57.332Z,1.65
2022-10-05T13:43:20.622Z,1.40
2022-10-05T13:49:10.234Z,1.13
2022-10-05T13:54:23.377Z,1.10
2022-10-05T13:59:49.038Z,1.42
2022-10-05T14:04:57.616Z,1.10
2022-10-05T14:10:00.151Z,1.33
2022-10-05T14:15:19.656Z,1.40
2022-10-05T14:20:30.864Z,1.30
2022-10-05T14:25:47.426Z,1.42
2022-10-05T14:31:05.748Z,1.40
2022-10-05T14:36:34.233Z,1.60
2022-10-05T14:41:36.277Z,1.73
2022-10-05T14:46:37.918Z,1.50
2022-10-05T14:51:40.170Z,1.55
2022-10-05T14:57:20.697Z,1.33
2022-10-05T15:03:01.467Z,1.15
2022-10-05T15:08:11.976Z,1.50
2022-10-05T15:13:18.367Z,1.70
2022-10-05T15:18:36.823Z,1.73
2022-10-05T15:23:43.494Z,1.45
2022-10-05T15:29:23.911Z,1.75
2022-10-05T15:34:47.209Z,1.73
2022-10-05T15:39:54.616Z,1.40
2022-10-05T15:45:17.919Z,1.50
2022-10-05T15:50:28.221Z,1.90
2022-10-05T15:55:34.199Z,2.05
2022-10-05T16:00:46.666Z,2.33
2022-10-05T16:05:56.504Z,1.83
2022-10-05T16:10:59.331Z,1.92
2022-10-05T16:16:23.446Z,1.83
2022-10-05T16:21:37.080Z,1.98
2022-10-05T16:27:03.722Z,2.08
2022-10-05T16:32:08.230Z,1.77
2022-10-05T16:37:18.401Z,2.15
2022-10-05T16:42:44.658Z,2.00
2022-10-05T16:47:58.110Z,2.35
2022-10-05T16:53:31.685Z,2.30
2022-10-05T16:58:42.470Z,2.60
2022-10-05T17:04:11.906Z,3.00
2022-10-05T17:09:53.913Z,1.98
2022-10-05T17:15:11.349Z,2.30
2022-10-05T17:20:37.935Z,1.80
2022-10-05T17:25:47.634Z,1.50
2022-10-05T17:31:12.599Z,1.23
2022-10-05T17:36:18.004Z,1.90
2022-10-05T17:41:30.814Z,1.70
2022-10-05T17:46:44.030Z,2.25
2022-10-05T17:51:45.471Z,1.60
2022-10-05T17:56:46.916Z,2.03
2022-10-05T18:02:40.617Z,1.20
2022-10-05T18:07:43.688Z,1.35
2022-10-05T18:12:45.154Z,2.05
2022-10-05T18:17:52.354Z,1.90
2022-10-05T18:23:02.876Z,1.75
2022-10-05T18:28:22.817Z,1.92
2022-10-05T18:33:50.445Z,1.90
2022-10-05T18:38:56.040Z,2.17
2022-10-05T18:44:03.482Z,2.10
2022-10-05T18:49:29.614Z,2.00
2022-10-05T18:54:31.068Z,1.97
2022-10-05T18:59:35.258Z,2.45
2022-10-05T19:04:58.278Z,2.25
2022-10-05T19:10:17.203Z,2.13
2022-10-05T19:15:40.541Z,2.67
2022-10-05T19:20:56.953Z,1.90
2022-10-05T19:26:09.850Z,1.88
2022-10-05T19:31:11.386Z,1.95
2022-10-05T19:36:52.066Z,1.63
2022-10-05T19:42:15.888Z,3.10
2022-10-05T19:47:54.487Z,2.28
2022-10-05T19:53:12.679Z,1.60
2022-10-05T19:58:23.994Z,2.03
2022-10-05T20:03:27.908Z,1.77
2022-10-05T20:08:44.829Z,1.65
2022-10-05T20:13:52.074Z,1.58
2022-10-05T20:18:53.751Z,1.98
2022-10-05T20:24:08.236Z,1.52
2022-10-05T20:29:09.731Z,1.40
2022-10-05T20:34:11.250Z,2.17
2022-10-05T20:39:12.970Z,1.85
2022-10-05T20:44:14.801Z,1.48
2022-10-05T20:49:16.307Z,1.63
2022-10-05T20:54:18.039Z,1.50
2022-10-05T20:59:19.593Z,1.48
2022-10-05T21:04:23.862Z,1.73
2022-10-05T21:09:25.377Z,1.30
2022-10-05T21:14:26.881Z,1.80
2022-10-05T21:19:28.517Z,2.08
2022-10-05T21:24:30.011Z,1.10
2022-10-05T21:29:32.180Z,1.67
2022-10-05T21:34:33.829Z,1.38
2022-10-05T21:39:35.386Z,1.90
2022-10-05T21:44:36.911Z,1.70
2022-10-05T21:49:38.441Z,1.90
2022-10-05T21:54:39.976Z,1.30
2022-10-05T21:59:41.822Z,1.42
2022-10-05T22:04:43.301Z,1.40
2022-10-05T22:09:47.380Z,1.83
2022-10-05T22:14:48.874Z,1.58
2022-10-05T22:19:51.228Z,2.67
2022-10-05T22:24:53.612Z,1.55
2022-10-05T22:29:56.001Z,1.63
2022-10-05T22:34:57.546Z,1.60
2022-10-05T22:39:59.095Z,0.95
2022-10-05T22:45:00.611Z,1.05
2022-10-05T22:50:02.274Z,0.75
2022-10-05T22:55:04.150Z,0.70
2022-10-05T23:00:09.351Z,0.82
2022-10-05T23:05:11.781Z,1.00
2022-10-05T23:10:16.331Z,0.65
2022-10-05T23:15:17.896Z,1.40
2022-10-05T23:20:19.505Z,1.10
2022-10-05T23:25:21.007Z,1.00
2022-10-05T23:30:22.529Z,0.65
2022-10-05T23:35:24.031Z,0.77
2022-10-05T23:40:25.766Z,0.80
2022-10-05T23:45:27.471Z,0.77
2022-10-05T23:50:28.936Z,1.55
2022-10-05T23:55:30.756Z,1.13
